Portada
METAR-TAF:

METAR-TAF

Aeroports :

Bangkok, Tailàndia

latitud: 13-54-45N, longitud: 100-36-24E, altitud: 4 m

Observació

L'informe es va fer fa 25 minuts, a les 06:30 UTC
Vent 11 kt del Sud, variant entre Sud-Est i Sud-Oest
Temperatura 33°C
Humitat 32%
Pressió 1009 hPa
Visibilitat 10 km o més
sense núvols per sota de 1500 mi sense presència de cumulonimbus.

METAR: VTBD 270630Z 19011KT 140V220 CAVOK 33/14 Q1009 NOSIG

Hora: 13:55 (06:55 UTC)

Pronòstic

L'informe es va fer fa 1 hora i 55 minuts, a les 05:00 UTC
Pronòstic vàlid del 27 a les 06 UTC al 28 a les 12 UTC
Vent 8 kt del Sud/Sud-Oest
Visibilitat: 9000 m
Escasses núvols a una alçada de 3000 ft
Evolucionant progressivament
l' 27 a les 20 UTC al 27 a les 22 UTC
Vent 5 kt del Oest
Evolucionant progressivament
l' 28 a les 00 UTC al 28 a les 02 UTC
Vent 8 kt del Sud/Sud-Oest

TAF: VTBD 270500Z 2706/2812 21008KT 9000 FEW030 BECMG 2720/2722 28005KT BECMG 2800/2802 21008KT

Observacions i pronòstics meteorològics de més de 4000 aeroports (METAR i TAF).

Les estacions disponibles són els punts grocs i vermells al mapa.

Posi el ratolí al punt desitjat per veure el nom de l'estació.

Feu clic per veure les observacions i els pronòstics meteorològics.

Per canviar el mapa: feu clic els botons verds amb una creu de color negre per apropar; al botó verd amb un guió per allunyar la imatge; o en les fletxes verdes per a mapes adjacents.


METAR-TAF: